Time;durP1;ratioP1;P1;durP2;ratioP2;P2;SDS_P1;SDS_P2;PMS_P1;PMS_P2;Temp;Humidity;BMP_temperature;BMP_pressure;BME280_temperature;BME280_humidity;BME280_pressure;Samples;Min_cycle;Max_cycle;Signal;HPM_P1;HPM_P2
2023/01/19 00:01:18;;;;;;;7.78;1.10;;;;;;;-146.73;100.00;56421.06;6209686;23;20088;-91
2023/01/19 00:03:44;;;;;;;6.13;1.20;;;;;;;-146.73;100.00;56421.06;6184377;23;20462;-91
2023/01/19 00:06:10;;;;;;;12.20;1.55;;;;;;;-146.73;100.00;56421.06;6183378;23;20000;-91
2023/01/19 00:08:47;;;;;;;8.90;1.27;;;;;;;-146.73;100.00;56421.06;6183074;23;20011;-92
2023/01/19 00:11:13;;;;;;;5.00;1.15;;;;;;;-146.73;100.00;56421.06;6183576;23;20462;-91
2023/01/19 00:13:41;;;;;;;7.32;1.42;;;;;;;-146.73;100.00;56421.06;6231599;23;19993;-92
2023/01/19 00:16:10;;;;;;;5.85;1.50;;;;;;;-146.73;100.00;56421.06;6226010;23;20342;-91
2023/01/19 00:18:35;;;;;;;6.78;1.35;;;;;;;-146.73;100.00;56421.06;6207992;23;20028;-91
2023/01/19 00:21:01;;;;;;;7.95;1.58;;;;;;;-146.73;100.00;56421.06;6182800;23;20493;-91
2023/01/19 00:23:26;;;;;;;6.50;1.42;;;;;;;-146.73;100.00;56421.06;6198515;23;20047;-92
2023/01/19 00:25:55;;;;;;;9.57;1.70;;;;;;;-146.73;100.00;56421.06;6236704;23;20001;-91
2023/01/19 00:28:20;;;;;;;9.38;1.33;;;;;;;-146.73;100.00;56421.06;6183937;23;20016;-91
2023/01/19 00:30:46;;;;;;;6.57;1.38;;;;;;;-146.73;100.00;56421.06;6183100;23;20012;-91
2023/01/19 00:33:15;;;;;;;6.30;1.42;;;;;;;-146.73;100.00;56421.06;6181054;23;20016;-91
2023/01/19 00:35:43;;;;;;;11.35;1.33;;;;;;;-146.73;100.00;56421.06;6206574;23;20012;-91
2023/01/19 00:38:12;;;;;;;7.65;1.60;;;;;;;-146.73;100.00;56421.06;6206304;23;20004;-90
2023/01/19 00:40:37;;;;;;;6.40;1.30;;;;;;;-146.73;100.00;56421.06;6182109;23;20031;-89
2023/01/19 00:43:06;;;;;;;7.88;1.65;;;;;;;-146.73;100.00;56421.06;6181327;23;20474;-90
2023/01/19 00:45:32;;;;;;;8.93;1.60;;;;;;;-146.73;100.00;56421.06;6208440;23;20020;-91
2023/01/19 00:48:04;;;;;;;9.23;1.70;;;;;;;-146.73;100.00;56421.06;6180720;23;20450;-92
2023/01/19 00:50:36;;;;;;;8.45;1.52;;;;;;;-146.73;100.00;56421.06;6181636;23;20039;-90
2023/01/19 00:53:07;;;;;;;8.98;1.50;;;;;;;-146.73;100.00;56421.06;6182374;23;20446;-91
2023/01/19 00:55:43;;;;;;;7.43;1.35;;;;;;;-146.73;100.00;56421.06;6181433;23;20004;-90
2023/01/19 00:58:16;;;;;;;6.53;1.52;;;;;;;-146.73;100.00;56421.06;6182552;23;20014;-90
2023/01/19 01:00:45;;;;;;;13.20;1.77;;;;;;;-146.73;100.00;56421.06;6209364;23;20005;-91
2023/01/19 01:03:17;;;;;;;10.35;1.60;;;;;;;-146.73;100.00;56421.06;6182222;23;20051;-90
2023/01/19 01:06:07;;;;;;;7.18;1.50;;;;;;;-146.73;100.00;56421.06;6182331;23;20012;-90
2023/01/19 01:08:35;;;;;;;10.38;2.22;;;;;;;-146.73;100.00;56421.06;6182148;23;20019;-90
2023/01/19 01:11:04;;;;;;;7.68;1.40;;;;;;;-146.73;100.00;56421.06;6181492;23;20012;-90
2023/01/19 01:13:37;;;;;;;8.32;1.50;;;;;;;-146.73;100.00;56421.06;6182634;23;20019;-91
2023/01/19 01:16:08;;;;;;;7.07;1.60;;;;;;;-146.73;100.00;56421.06;6183076;23;20474;-91
2023/01/19 01:18:34;;;;;;;8.82;1.60;;;;;;;-146.73;100.00;56421.06;6181574;23;20025;-89
2023/01/19 01:21:05;;;;;;;9.18;1.75;;;;;;;-146.73;100.00;56421.06;6182305;23;20016;-90
2023/01/19 01:23:31;;;;;;;8.63;2.05;;;;;;;-146.73;100.00;56421.06;6208533;23;20091;-92
2023/01/19 01:26:02;;;;;;;8.25;1.77;;;;;;;-146.73;100.00;56421.06;6181983;23;20031;-90
2023/01/19 01:28:28;;;;;;;8.88;1.60;;;;;;;-146.73;100.00;56421.06;6180129;23;20011;-90
2023/01/19 01:30:56;;;;;;;12.15;2.47;;;;;;;-146.73;100.00;56421.06;6205561;23;20008;-92
2023/01/19 01:33:23;;;;;;;11.88;2.17;;;;;;;-146.73;100.00;56421.06;6178877;23;20008;-90
2023/01/19 01:35:48;;;;;;;11.20;2.00;;;;;;;-146.73;100.00;56421.06;6178699;23;20052;-91
2023/01/19 01:38:17;;;;;;;8.20;1.77;;;;;;;-146.73;100.00;56421.06;6179678;23;20016;-89
2023/01/19 01:40:45;;;;;;;10.80;2.42;;;;;;;-146.73;100.00;56421.06;6177921;23;20023;-91
2023/01/19 01:43:19;;;;;;;10.88;2.50;;;;;;;-146.73;100.00;56421.06;6205462;23;20020;-91
2023/01/19 01:45:49;;;;;;;11.98;2.50;;;;;;;-146.73;100.00;56421.06;6178917;23;20055;-90
2023/01/19 01:48:29;;;;;;;10.65;2.22;;;;;;;-146.73;100.00;56421.06;6177352;23;20032;-91
2023/01/19 01:51:24;;;;;;;11.18;2.50;;;;;;;-146.73;100.00;56421.06;6178741;23;20024;-91
2023/01/19 01:53:59;;;;;;;8.63;1.95;;;;;;;-146.73;100.00;56421.06;6178580;23;20021;-91
2023/01/19 01:56:32;;;;;;;12.35;2.58;;;;;;;-146.73;100.00;56421.06;6178960;23;20019;-91
2023/01/19 01:59:02;;;;;;;10.68;2.15;;;;;;;-146.73;100.00;56421.06;6180192;23;20012;-91
2023/01/19 02:04:14;;;;;;;8.80;2.10;;;;;;;-146.73;100.00;56421.06;6208805;23;20122;-91
2023/01/19 02:15:19;;;;;;;11.60;2.42;;;;;;;-146.73;100.00;56421.06;6208629;23;20465;-90
2023/01/19 02:17:50;;;;;;;11.15;2.53;;;;;;;-146.73;100.00;56421.06;6209096;23;20005;-92
2023/01/19 02:20:22;;;;;;;9.48;1.95;;;;;;;-146.73;100.00;56421.06;6177038;23;20067;-90
2023/01/19 02:22:54;;;;;;;12.00;2.30;;;;;;;-146.73;100.00;56421.06;6178626;23;20245;-91
2023/01/19 02:25:19;;;;;;;16.60;2.38;;;;;;;-146.73;100.00;56421.06;6197746;23;20335;-91
2023/01/19 02:27:56;;;;;;;10.35;1.77;;;;;;;-146.73;100.00;56421.06;6201937;23;20012;-91
2023/01/19 02:30:22;;;;;;;9.05;1.90;;;;;;;-146.73;100.00;56421.06;6177333;23;20009;-91
2023/01/19 02:32:48;;;;;;;7.82;1.92;;;;;;;-146.73;100.00;56421.06;6177642;23;20008;-91
2023/01/19 02:35:13;;;;;;;8.50;2.03;;;;;;;-146.73;100.00;56421.06;6187640;23;20013;-91
2023/01/19 02:37:41;;;;;;;12.93;2.10;;;;;;;-146.73;100.00;56421.06;6204933;23;20039;-91
2023/01/19 02:40:13;;;;;;;7.30;1.77;;;;;;;-146.73;100.00;56421.06;6181270;23;20035;-91
2023/01/19 02:42:44;;;;;;;8.73;1.58;;;;;;;-146.73;100.00;56421.06;6173532;23;20032;-90
2023/01/19 02:45:17;;;;;;;10.13;1.80;;;;;;;-146.73;100.00;56421.06;6174884;23;20105;-91
2023/01/19 02:47:45;;;;;;;7.82;1.65;;;;;;;-146.73;100.00;56421.06;6176996;23;20036;-90
2023/01/19 02:50:40;;;;;;;10.35;1.70;;;;;;;-146.73;100.00;56421.06;6174229;23;20450;-90
2023/01/19 02:53:19;;;;;;;5.25;1.25;;;;;;;-146.73;100.00;56421.06;6176055;23;20471;-90
2023/01/19 02:55:52;;;;;;;12.18;2.17;;;;;;;-146.73;100.00;56421.06;6176513;23;20021;-90
2023/01/19 02:58:50;;;;;;;8.07;2.03;;;;;;;-146.73;100.00;56421.06;6172670;23;20769;-91
2023/01/19 03:04:05;;;;;;;7.93;1.38;;;;;;;-146.73;100.00;56421.06;6199239;23;20382;-95
2023/01/19 03:06:40;;;;;;;9.10;1.38;;;;;;;-146.73;100.00;56421.06;6172162;23;20040;-95
2023/01/19 03:09:14;;;;;;;7.00;1.27;;;;;;;-146.73;100.00;56421.06;6160376;23;20055;-96
2023/01/19 03:11:49;;;;;;;4.28;1.35;;;;;;;-146.73;100.00;56421.06;6160575;23;20028;-96
2023/01/19 03:14:24;;;;;;;6.45;1.05;;;;;;;-146.73;100.00;56421.06;6196190;23;20013;-95
2023/01/19 03:17:00;;;;;;;11.75;1.08;;;;;;;-146.73;100.00;56421.06;6181556;23;20012;-96
2023/01/19 03:19:34;;;;;;;8.85;1.30;;;;;;;-146.73;100.00;56421.06;6165635;23;20095;-96
2023/01/19 03:22:08;;;;;;;8.00;1.33;;;;;;;-146.73;100.00;56421.06;6159033;23;20029;-96
2023/01/19 03:24:39;;;;;;;8.63;1.30;;;;;;;-146.73;100.00;56421.06;6159388;23;20056;-95
2023/01/19 03:27:20;;;;;;;4.10;0.82;;;;;;;-146.73;100.00;56421.06;6159566;23;20049;-95
2023/01/19 03:29:56;;;;;;;8.00;1.10;;;;;;;-146.73;100.00;56421.06;6160132;23;20021;-96
2023/01/19 03:32:38;;;;;;;6.40;1.15;;;;;;;-146.73;100.00;56421.06;6158598;23;20013;-95
2023/01/19 03:35:11;;;;;;;7.43;1.83;;;;;;;-146.73;100.00;56421.06;6159199;23;20009;-96
2023/01/19 03:37:47;;;;;;;5.60;1.02;;;;;;;-146.73;100.00;56421.06;6159703;23;20012;-96
2023/01/19 03:40:13;;;;;;;5.15;0.88;;;;;;;-146.73;100.00;56421.06;6159542;23;20025;-95
2023/01/19 03:42:40;;;;;;;8.95;1.10;;;;;;;-146.73;100.00;56421.06;6159120;23;20020;-96
2023/01/19 03:45:37;;;;;;;5.60;1.20;;;;;;;-146.73;100.00;56421.06;6160154;23;20000;-95
2023/01/19 03:48:06;;;;;;;9.55;1.15;;;;;;;-146.73;100.00;56421.06;6185919;23;20025;-95
2023/01/19 03:50:35;;;;;;;10.55;1.35;;;;;;;-146.73;100.00;56421.06;6159429;23;20005;-96
2023/01/19 03:53:09;;;;;;;3.55;0.88;;;;;;;-146.73;100.00;56421.06;6160003;23;20020;-96
2023/01/19 03:55:36;;;;;;;8.45;1.25;;;;;;;-146.73;100.00;56421.06;6159562;23;20509;-96
2023/01/19 03:58:02;;;;;;;8.18;1.42;;;;;;;-146.73;100.00;56421.06;6160562;23;20013;-96
2023/01/19 04:00:27;;;;;;;8.98;1.17;;;;;;;-146.73;100.00;56421.06;6158948;23;20043;-96
2023/01/19 04:02:54;;;;;;;8.65;1.38;;;;;;;-146.73;100.00;56421.06;6189185;23;20027;-96
2023/01/19 04:05:28;;;;;;;8.65;1.02;;;;;;;-146.73;100.00;56421.06;6159586;23;20041;-96
2023/01/19 04:07:56;;;;;;;7.70;1.20;;;;;;;-146.73;100.00;56421.06;6160159;23;20446;-96
2023/01/19 04:10:22;;;;;;;5.75;0.82;;;;;;;-146.73;100.00;56421.06;6160276;23;20020;-96
2023/01/19 04:12:48;;;;;;;2.72;0.55;;;;;;;-146.73;100.00;56421.06;6158817;23;20009;-96
2023/01/19 04:15:15;;;;;;;8.73;0.93;;;;;;;-146.73;100.00;56421.06;6159454;23;20009;-95
2023/01/19 04:17:40;;;;;;;4.88;1.05;;;;;;;-146.73;100.00;56421.06;6161382;23;20024;-95
2023/01/19 04:20:07;;;;;;;7.57;0.95;;;;;;;-146.73;100.00;56421.06;6160593;23;20001;-96
2023/01/19 04:22:38;;;;;;;5.78;1.13;;;;;;;-146.73;100.00;56421.06;6161216;23;20084;-96
2023/01/19 04:25:07;;;;;;;8.10;1.30;;;;;;;-146.73;100.00;56421.06;6160851;23;20008;-96
2023/01/19 04:27:33;;;;;;;4.30;1.10;;;;;;;-146.73;100.00;56421.06;6159912;23;20027;-96
2023/01/19 04:29:59;;;;;;;5.88;1.27;;;;;;;-146.73;100.00;56421.06;6159891;23;20008;-96
2023/01/19 04:32:35;;;;;;;7.40;1.38;;;;;;;-146.73;100.00;56421.06;6159788;23;20374;-96
2023/01/19 04:35:02;;;;;;;7.85;1.50;;;;;;;-146.73;100.00;56421.06;6161145;23;20104;-96
2023/01/19 04:37:28;;;;;;;10.35;2.17;;;;;;;-146.73;100.00;56421.06;6160431;23;20021;-95
2023/01/19 04:39:53;;;;;;;6.28;1.95;;;;;;;-146.73;100.00;56421.06;6160358;23;20095;-96
2023/01/19 04:42:19;;;;;;;9.23;2.10;;;;;;;-146.73;100.00;56421.06;6186764;23;20080;-96
2023/01/19 04:44:56;;;;;;;9.18;2.50;;;;;;;-146.73;100.00;56421.06;6160109;23;20017;-96
2023/01/19 04:47:21;;;;;;;12.50;4.22;;;;;;;-146.73;100.00;56421.06;6160257;23;20039;-95
2023/01/19 04:49:47;;;;;;;13.10;5.03;;;;;;;-146.73;100.00;56421.06;6160648;23;20696;-96
2023/01/19 04:52:21;;;;;;;18.20;6.13;;;;;;;-146.73;100.00;56421.06;6160831;23;20106;-96
2023/01/19 04:54:50;;;;;;;17.52;6.13;;;;;;;-146.73;100.00;56421.06;6159892;23;20177;-96
2023/01/19 04:57:31;;;;;;;16.13;5.68;;;;;;;-146.73;100.00;56421.06;6159934;23;20009;-96
2023/01/19 04:59:57;;;;;;;15.45;5.85;;;;;;;-146.73;100.00;56421.06;6158934;23;20001;-96
2023/01/19 05:02:27;;;;;;;11.52;3.78;;;;;;;-146.73;100.00;56421.06;6159105;23;20096;-96
2023/01/19 05:04:55;;;;;;;8.15;3.03;;;;;;;-146.73;100.00;56421.06;6184895;23;20028;-96
2023/01/19 05:07:20;;;;;;;8.98;2.55;;;;;;;-146.73;100.00;56421.06;6189079;23;20024;-96
2023/01/19 05:09:48;;;;;;;9.13;2.72;;;;;;;-146.73;100.00;56421.06;6189038;23;20012;-96
2023/01/19 05:12:20;;;;;;;13.75;4.68;;;;;;;-146.73;100.00;56421.06;6215781;23;20004;-96
2023/01/19 05:14:56;;;;;;;14.52;5.68;;;;;;;-146.73;100.00;56421.06;6188834;23;20080;-96
2023/01/19 05:17:21;;;;;;;18.35;6.43;;;;;;;-146.73;100.00;56421.06;6191118;23;20094;-95
2023/01/19 05:20:00;;;;;;;15.20;6.72;;;;;;;-146.73;100.00;56421.06;6190585;23;20017;-96
2023/01/19 05:22:26;;;;;;;15.43;7.28;;;;;;;-146.73;100.00;56421.06;6189010;23;20016;-96
2023/01/19 05:25:00;;;;;;;17.85;7.43;;;;;;;-146.73;100.00;56421.06;6191109;23;20004;-96
2023/01/19 05:27:26;;;;;;;15.52;6.30;;;;;;;-146.73;100.00;56421.06;6191020;23;20087;-96
2023/01/19 05:29:52;;;;;;;14.15;6.07;;;;;;;-146.73;100.00;56421.06;6190787;23;20051;-96
2023/01/19 05:32:17;;;;;;;18.85;6.57;;;;;;;-146.73;100.00;56421.06;6195726;23;19988;-96
2023/01/19 05:34:42;;;;;;;15.68;6.25;;;;;;;-146.73;100.00;56421.06;6212227;23;20005;-96
2023/01/19 05:37:11;;;;;;;17.08;7.28;;;;;;;-146.73;100.00;56421.06;6207790;23;20032;-95
2023/01/19 05:39:36;;;;;;;16.33;6.85;;;;;;;-146.73;100.00;56421.06;6192522;23;20009;-96
2023/01/19 05:42:02;;;;;;;22.80;9.23;;;;;;;-146.73;100.00;56421.06;6191824;23;20097;-96
2023/01/19 05:44:28;;;;;;;21.45;9.63;;;;;;;-146.73;100.00;56421.06;6196878;23;20016;-96
2023/01/19 05:46:53;;;;;;;18.83;9.05;;;;;;;-146.73;100.00;56421.06;6238924;23;20008;-96
2023/01/19 05:49:22;;;;;;;21.45;9.32;;;;;;;-146.73;100.00;56421.06;6207592;23;20365;-96
2023/01/19 05:51:47;;;;;;;23.20;10.10;;;;;;;-146.73;100.00;56421.06;6191887;23;20040;-95
2023/01/19 05:54:16;;;;;;;22.73;10.95;;;;;;;-146.73;100.00;56421.06;6191192;23;20013;-95
2023/01/19 05:56:44;;;;;;;24.48;10.70;;;;;;;-146.73;100.00;56421.06;6190962;23;20001;-96
2023/01/19 05:59:10;;;;;;;24.60;10.85;;;;;;;-146.73;100.00;56421.06;6190774;23;20091;-96
2023/01/19 06:01:37;;;;;;;19.27;9.13;;;;;;;-146.73;100.00;56421.06;6190604;23;20008;-96
2023/01/19 06:04:03;;;;;;;16.65;8.30;;;;;;;-146.73;100.00;56421.06;6175242;23;20804;-96
2023/01/19 06:06:36;;;;;;;14.80;7.00;;;;;;;-146.73;100.00;56421.06;6161203;23;20001;-96
2023/01/19 06:09:34;;;;;;;17.98;7.47;;;;;;;-146.73;100.00;56421.06;6160857;23;20013;-96
2023/01/19 06:12:08;;;;;;;17.08;6.97;;;;;;;-146.73;100.00;56421.06;6160780;23;20017;-96
2023/01/19 06:14:39;;;;;;;15.98;6.85;;;;;;;-146.73;100.00;56421.06;6161632;23;20013;-96
2023/01/19 06:17:06;;;;;;;16.75;6.05;;;;;;;-146.73;100.00;56421.06;6161473;23;20316;-96
2023/01/19 06:19:35;;;;;;;21.77;6.82;;;;;;;-146.73;100.00;56421.06;6161160;23;20051;-96
2023/01/19 06:22:01;;;;;;;10.93;4.70;;;;;;;-146.73;100.00;56421.06;6161283;23;20423;-96
2023/01/19 06:24:28;;;;;;;10.18;4.68;;;;;;;-146.73;100.00;56421.06;6161068;23;20040;-96
2023/01/19 06:26:59;;;;;;;13.30;5.13;;;;;;;-146.73;100.00;56421.06;6161283;23;20041;-96
2023/01/19 06:29:27;;;;;;;14.02;5.50;;;;;;;-146.73;100.00;56421.06;6161407;23;20051;-96
2023/01/19 06:31:53;;;;;;;325.98;24.73;;;;;;;-146.73;100.00;56421.06;6160745;23;20016;-96
2023/01/19 06:34:19;;;;;;;13.70;4.88;;;;;;;-146.73;100.00;56421.06;6161268;23;20013;-96
2023/01/19 06:36:45;;;;;;;11.40;4.30;;;;;;;-146.73;100.00;56421.06;6161215;23;20019;-96
2023/01/19 06:39:11;;;;;;;10.52;4.63;;;;;;;-146.73;100.00;56421.06;6160953;23;20005;-96
2023/01/19 06:41:37;;;;;;;9.60;4.00;;;;;;;-146.73;100.00;56421.06;6161085;23;20008;-96
2023/01/19 06:44:04;;;;;;;24.58;4.68;;;;;;;-146.73;100.00;56421.06;6189943;23;20042;-96
2023/01/19 06:46:29;;;;;;;23.80;3.95;;;;;;;-146.73;100.00;56421.06;6162335;23;20001;-95
2023/01/19 06:48:55;;;;;;;8.20;2.60;;;;;;;-146.73;100.00;56421.06;6161824;23;20303;-96
2023/01/19 06:51:24;;;;;;;10.23;2.83;;;;;;;-146.73;100.00;56421.06;6188441;23;20005;-96
2023/01/19 06:54:17;;;;;;;9.07;2.97;;;;;;;-146.73;100.00;56421.06;6161326;23;20009;-96
2023/01/19 06:56:46;;;;;;;57.00;5.45;;;;;;;-146.73;100.00;56421.06;6043912;23;20018;-96
2023/01/19 06:59:11;;;;;;;7.22;2.47;;;;;;;-146.73;100.00;56421.06;6044971;23;20053;-95
2023/01/19 07:01:40;;;;;;;10.68;3.38;;;;;;;-146.73;100.00;56421.06;6044490;23;20030;-96
2023/01/19 07:04:14;;;;;;;60.92;6.28;;;;;;;-146.73;100.00;56421.06;6044485;23;20023;-95
2023/01/19 07:06:41;;;;;;;8.27;2.50;;;;;;;-146.73;100.00;56421.06;6044549;23;20078;-94
2023/01/19 07:09:09;;;;;;;7.35;2.40;;;;;;;-146.73;100.00;56421.06;6044973;23;20014;-95
2023/01/19 07:11:40;;;;;;;7.63;2.00;;;;;;;-146.73;100.00;56421.06;6068425;23;20011;-94
2023/01/19 07:14:07;;;;;;;7.80;1.60;;;;;;;-146.73;100.00;56421.06;6043848;23;20097;-96
2023/01/19 07:16:33;;;;;;;9.90;1.80;;;;;;;-146.73;100.00;56421.06;6067209;23;20030;-96
2023/01/19 07:18:59;;;;;;;7.00;2.00;;;;;;;-146.73;100.00;56421.06;6042464;23;20495;-95
2023/01/19 07:21:25;;;;;;;8.75;2.20;;;;;;;-146.73;100.00;56421.06;6042721;23;20082;-94
2023/01/19 07:23:58;;;;;;;8.00;1.83;;;;;;;-146.73;100.00;56421.06;6042636;23;20019;-95
2023/01/19 07:26:24;;;;;;;;;;;;;;;-146.73;100.00;56421.06;6042719;23;20085;-95
2023/01/19 07:28:51;;;;;;;7.32;1.92;;;;;;;-146.73;100.00;56421.06;6042218;23;19937;-96
2023/01/19 07:31:17;;;;;;;10.40;2.55;;;;;;;-146.73;100.00;56421.06;6065620;23;20022;-96
2023/01/19 07:33:49;;;;;;;18.00;3.00;;;;;;;-146.73;100.00;56421.06;6124321;23;20025;-96
2023/01/19 07:36:31;;;;;;;7.50;2.20;;;;;;;-146.73;100.00;56421.06;6185056;23;20024;-96
2023/01/19 07:38:59;;;;;;;6.80;1.95;;;;;;;-146.73;100.00;56421.06;6184079;23;20035;-96
2023/01/19 07:41:25;;;;;;;9.60;2.50;;;;;;;-146.73;100.00;56421.06;6185767;23;20015;-96
2023/01/19 07:43:51;;;;;;;8.02;1.77;;;;;;;-146.73;100.00;56421.06;6184179;23;20001;-96
2023/01/19 07:46:20;;;;;;;6.63;1.80;;;;;;;-146.73;100.00;56421.06;6186155;23;20055;-96
2023/01/19 07:48:46;;;;;;;6.00;1.63;;;;;;;-146.73;100.00;56421.06;6185288;23;20009;-96
2023/01/19 07:51:16;;;;;;;6.80;2.00;;;;;;;-146.73;100.00;56421.06;6185850;23;20017;-96
2023/01/19 07:53:48;;;;;;;16.48;3.03;;;;;;;-146.73;100.00;56421.06;6187487;23;20005;-96
2023/01/19 07:56:14;;;;;;;34.28;4.95;;;;;;;-146.73;100.00;56421.06;6187579;23;20013;-96
2023/01/19 07:58:39;;;;;;;27.38;4.45;;;;;;;-146.73;100.00;56421.06;6186516;23;20486;-96
2023/01/19 08:01:10;;;;;;;9.52;2.80;;;;;;;-146.73;100.00;56421.06;6193660;23;19997;-95
2023/01/19 08:03:37;;;;;;;8.88;2.92;;;;;;;-146.73;100.00;56421.06;6207198;23;20020;-96
2023/01/19 08:06:03;;;;;;;8.75;2.70;;;;;;;-146.73;100.00;56421.06;6182367;23;20005;-96
2023/01/19 08:08:30;;;;;;;9.95;3.40;;;;;;;-146.73;100.00;56421.06;6171581;23;20009;-96
2023/01/19 08:10:56;;;;;;;22.88;4.88;;;;;;;-146.73;100.00;56421.06;6162910;23;20064;-96
2023/01/19 08:13:32;;;;;;;24.42;3.90;;;;;;;-146.73;100.00;56421.06;6162297;23;20017;-96
2023/01/19 08:15:58;;;;;;;33.92;5.05;;;;;;;-146.73;100.00;56421.06;6174891;23;19996;-95
2023/01/19 08:18:23;;;;;;;34.63;4.53;;;;;;;-146.73;100.00;56421.06;6179845;23;20020;-96
2023/01/19 08:20:49;;;;;;;100.90;10.10;;;;;;;-146.73;100.00;56421.06;6164338;23;20020;-96
2023/01/19 08:23:16;;;;;;;12.70;4.03;;;;;;;-146.73;100.00;56421.06;6159411;23;20017;-96
2023/01/19 08:25:44;;;;;;;24.58;3.85;;;;;;;-146.73;100.00;56421.06;6157996;23;20029;-96
2023/01/19 08:28:11;;;;;;;10.70;2.88;;;;;;;-146.73;100.00;56421.06;6159476;23;20013;-96
2023/01/19 08:30:37;;;;;;;41.25;5.35;;;;;;;-146.73;100.00;56421.06;6157327;23;20004;-96
2023/01/19 08:33:08;;;;;;;13.32;3.22;;;;;;;-146.73;100.00;56421.06;6157948;23;20005;-96
2023/01/19 08:35:39;;;;;;;9.77;2.63;;;;;;;-146.73;100.00;56421.06;6157866;23;20021;-96
2023/01/19 08:38:06;;;;;;;14.48;2.47;;;;;;;-146.73;100.00;56421.06;6158499;23;20016;-96
2023/01/19 08:40:34;;;;;;;8.77;2.80;;;;;;;-146.73;100.00;56421.06;6158816;23;20051;-95
2023/01/19 08:43:05;;;;;;;8.45;2.20;;;;;;;-146.73;100.00;56421.06;6159509;23;20017;-95
2023/01/19 08:45:31;;;;;;;8.07;2.13;;;;;;;-146.73;100.00;56421.06;6157878;23;20029;-96
2023/01/19 08:48:00;;;;;;;16.08;2.53;;;;;;;-146.73;100.00;56421.06;6158512;23;20005;-96
2023/01/19 08:50:28;;;;;;;9.18;2.05;;;;;;;-146.73;100.00;56421.06;6159513;23;20005;-96
2023/01/19 08:52:58;;;;;;;6.43;2.00;;;;;;;-146.73;100.00;56421.06;6158976;23;20025;-96
2023/01/19 08:55:27;;;;;;;9.05;2.40;;;;;;;-146.73;100.00;56421.06;6159856;23;20009;-95
2023/01/19 08:57:56;;;;;;;14.68;2.45;;;;;;;-146.73;100.00;56421.06;6160239;23;20048;-96
2023/01/19 09:00:24;;;;;;;8.30;2.40;;;;;;;-146.73;100.00;56421.06;6157297;23;20000;-96
2023/01/19 09:02:49;;;;;;;8.18;2.25;;;;;;;-146.73;100.00;56421.06;6157007;23;20013;-96
2023/01/19 09:05:15;;;;;;;7.25;1.95;;;;;;;-146.73;100.00;56421.06;6161080;23;20513;-96
2023/01/19 09:07:43;;;;;;;12.77;2.53;;;;;;;-146.73;100.00;56421.06;6157142;23;20013;-95
2023/01/19 09:10:09;;;;;;;7.55;2.22;;;;;;;-146.73;100.00;56421.06;6157922;23;20009;-95
2023/01/19 09:12:34;;;;;;;8.50;2.30;;;;;;;-146.73;100.00;56421.06;6158411;23;20045;-96
2023/01/19 09:15:00;;;;;;;10.23;2.25;;;;;;;-146.73;100.00;56421.06;6158360;23;20013;-95
2023/01/19 09:17:28;;;;;;;8.35;2.50;;;;;;;-146.73;100.00;56421.06;6183120;23;20028;-96
2023/01/19 09:19:58;;;;;;;13.05;3.67;;;;;;;-146.73;100.00;56421.06;6162576;23;20069;-96
2023/01/19 09:22:31;;;;;;;8.88;2.90;;;;;;;-146.73;100.00;56421.06;6151782;23;20084;-95
2023/01/19 09:24:59;;;;;;;;;;;;;;;-146.73;100.00;56421.06;6156885;23;20021;-95
2023/01/19 09:27:25;;;;;;;7.32;2.22;;;;;;;-146.73;100.00;56421.06;6156762;23;19912;-95
2023/01/19 09:29:53;;;;;;;11.20;2.60;;;;;;;-146.73;100.00;56421.06;6183277;23;20017;-95
2023/01/19 09:32:20;;;;;;;9.20;2.75;;;;;;;-146.73;100.00;56421.06;6156540;23;20021;-93
2023/01/19 09:34:53;;;;;;;12.90;2.88;;;;;;;-146.73;100.00;56421.06;6154854;23;20012;-96
2023/01/19 09:37:19;;;;;;;8.93;2.70;;;;;;;-146.73;100.00;56421.06;6156509;23;20919;-95
2023/01/19 09:39:44;;;;;;;14.13;3.00;;;;;;;-146.73;100.00;56421.06;6155411;23;20044;-95
2023/01/19 09:42:48;;;;;;;8.38;2.80;;;;;;;-146.73;100.00;56421.06;6154766;23;20067;-95
2023/01/19 09:45:21;;;;;;;9.63;2.83;;;;;;;-146.73;100.00;56421.06;6154582;23;20012;-95
2023/01/19 09:47:49;;;;;;;20.05;3.67;;;;;;;-146.73;100.00;56421.06;6155437;23;20029;-94
2023/01/19 09:50:26;;;;;;;9.15;3.15;;;;;;;-146.73;100.00;56421.06;6156981;23;20136;-94
2023/01/19 09:53:16;;;;;;;9.25;3.03;;;;;;;-146.73;100.00;56421.06;6156006;23;20032;-96
2023/01/19 09:55:42;;;;;;;7.53;2.60;;;;;;;-146.73;100.00;56421.06;6153812;23;20009;-94
2023/01/19 09:58:15;;;;;;;10.80;3.00;;;;;;;-146.73;100.00;56421.06;6155666;23;20020;-93
2023/01/19 10:00:44;;;;;;;10.60;2.45;;;;;;;-146.73;100.00;56421.06;6152402;23;20017;-95
2023/01/19 10:03:19;;;;;;;11.15;2.55;;;;;;;-146.73;100.00;56421.06;6150646;23;20423;-96
2023/01/19 10:05:54;;;;;;;7.10;2.40;;;;;;;-146.73;100.00;56421.06;6152533;23;20514;-95
2023/01/19 10:08:36;;;;;;;9.43;2.53;;;;;;;-146.73;100.00;56421.06;6155214;23;20104;-95
2023/01/19 10:11:01;;;;;;;8.50;2.50;;;;;;;-146.73;100.00;56421.06;6152999;23;20051;-93
2023/01/19 10:13:51;;;;;;;9.27;2.28;;;;;;;-146.73;100.00;56421.06;6150207;23;20717;-93
2023/01/19 10:16:50;;;;;;;7.95;2.40;;;;;;;-146.73;100.00;56421.06;6152713;23;20100;-93
2023/01/19 10:19:31;;;;;;;8.13;2.33;;;;;;;-146.73;100.00;56421.06;6155194;23;20025;-96
2023/01/19 10:22:21;;;;;;;7.82;2.20;;;;;;;-146.73;100.00;56421.06;6151814;23;20073;-93
2023/01/19 10:25:00;;;;;;;9.73;2.58;;;;;;;-146.73;100.00;56421.06;6153024;23;20025;-95
2023/01/19 10:27:32;;;;;;;11.32;2.65;;;;;;;-146.73;100.00;56421.06;6152961;23;20092;-93
2023/01/19 10:30:32;;;;;;;14.17;2.73;;;;;;;-146.73;100.00;56421.06;6158805;23;20028;-95
2023/01/19 10:33:01;;;;;;;9.65;3.00;;;;;;;-146.73;100.00;56421.06;6177662;23;20004;-93
2023/01/19 10:35:31;;;;;;;9.00;2.78;;;;;;;-146.73;100.00;56421.06;6168649;23;20108;-94
2023/01/19 10:38:01;;;;;;;11.25;2.80;;;;;;;-146.73;100.00;56421.06;6179848;23;20009;-93
2023/01/19 10:41:03;;;;;;;9.18;2.50;;;;;;;-146.73;100.00;56421.06;6159989;23;20530;-96
2023/01/19 10:43:37;;;;;;;8.13;2.55;;;;;;;-146.73;100.00;56421.06;6161828;23;20005;-94
2023/01/19 10:46:19;;;;;;;9.25;2.90;;;;;;;-146.73;100.00;56421.06;6167833;23;20001;-94
2023/01/19 10:51:54;;;;;;;9.48;2.70;;;;;;;-146.73;100.00;56421.06;6092286;23;20022;-95
2023/01/19 10:54:24;;;;;;;8.18;2.65;;;;;;;-146.73;100.00;56421.06;6091628;23;20181;-95
2023/01/19 10:56:59;;;;;;;11.13;2.88;;;;;;;-146.73;100.00;56421.06;6068378;23;20018;-94
2023/01/19 10:59:43;;;;;;;12.88;5.35;;;;;;;-146.73;100.00;56421.06;6068075;23;20093;-94
2023/01/19 11:02:17;;;;;;;;;;;;;;;-146.73;100.00;56421.06;6068467;23;20030;-95
2023/01/19 11:04:44;;;;;;;12.38;3.38;;;;;;;-146.73;100.00;56421.06;6090644;23;19920;-94
2023/01/19 11:07:14;;;;;;;9.20;3.53;;;;;;;-146.73;100.00;56421.06;6067516;23;20014;-95
2023/01/19 11:09:45;;;;;;;9.70;2.80;;;;;;;-146.73;100.00;56421.06;6066847;23;20435;-94
2023/01/19 11:12:22;;;;;;;13.20;5.47;;;;;;;-146.73;100.00;56421.06;6090192;23;20011;-95
2023/01/19 11:14:52;;;;;;;15.73;6.53;;;;;;;-146.73;100.00;56421.06;6091038;23;20022;-95
2023/01/19 11:17:31;;;;;;;15.25;4.57;;;;;;;-146.73;100.00;56421.06;6090534;23;20122;-95
2023/01/19 11:20:03;;;;;;;10.00;2.90;;;;;;;-146.73;100.00;56421.06;6090029;23;20010;-95
2023/01/19 11:22:32;;;;;;;14.98;4.30;;;;;;;-146.73;100.00;56421.06;6090641;23;20018;-95
2023/01/19 11:25:03;;;;;;;15.15;5.78;;;;;;;-146.73;100.00;56421.06;6103997;23;20009;-94
2023/01/19 11:27:33;;;;;;;13.70;5.07;;;;;;;-146.73;100.00;56421.06;6157238;23;20013;-95
2023/01/19 11:30:21;;;;;;;11.32;3.30;;;;;;;-146.73;100.00;56421.06;6159179;23;20021;-95
2023/01/19 11:32:48;;;;;;;9.90;3.10;;;;;;;-146.73;100.00;56421.06;6156843;23;20080;-94
2023/01/19 11:35:37;;;;;;;9.75;3.10;;;;;;;-146.73;100.00;56421.06;6156070;23;20481;-93
2023/01/19 11:38:18;;;;;;;8.82;2.67;;;;;;;-146.73;100.00;56421.06;6156739;23;20111;-94
2023/01/19 11:40:57;;;;;;;8.27;2.38;;;;;;;-146.73;100.00;56421.06;6158634;23;20031;-94